Tiempo atmosférico en la estación meteorológica de Lanaja, Huesca (380 m.)



Fecha
DESCASC
Temp. máxima en grados centígrados (hora)
DESCASC
Temp. mínima en grados centígrados (hora)
DESCASC
Temp. media en grados centígrados
DESCASC
Racha de viento máxima en m/sg (hora)
DESCASC
Velocidad máxima media en intervalos de 10 minutos(hora)
DESCASC
Precipitaciones diarias en mm
DESCASC
Precipitaciones de 00:00 a 06:00 en mm
DESCASC
Precipitaciones de 06:00 a 12:00 en mm
DESCASC
Precipitaciones de 12:00 a 18:00 en mm
DESCASC
Precipitaciones de 18:00 a 24:00 en mm
DESCASC
14-11-2019 9.4 (15:40) 4.9 (10:00) 7.1 15.28 (08:30) 9.72 (08:00) 2.6 0.4 2.2 0 0
13-11-2019 14 (13:20) 7.1 (07:50) 10.5 18.33 (14:50) 13.61 (14:50) 6 0.2 5.8 0 0
12-11-2019 12.5 (14:10) 6.6 (05:10) 9.5 17.5 (09:40) 12.78 (12:10) 0 0 0 0 0
11-11-2019 11.3 (14:40) 3.9 (01:10) 7.6 21.11 (19:10) 15.56 (18:40) 0 0 0 0 0
10-11-2019 8.3 (13:00) 4.3 (00:00) 6.3 19.17 (13:40) 14.72 (16:00) 0 0 0 0 0
09-11-2019 12.7 (13:30) 6.4 (00:00) 9.5 18.61 (01:10) 13.89 (01:10) 2.6 0 0 0 2.6
08-11-2019 11.5 (13:30) 3 (00:00) 7.3 21.39 (16:00) 15 (16:00) 0.6 0 0 0.2 0.4
07-11-2019 12.3 (11:20) 4.9 (00:00) 8.6 14.72 (13:10) 10 (12:50) 0 0 0 0 0
06-11-2019 14.1 (14:20) 8.3 (00:00) 11.2 18.06 (11:00) 13.33 (11:00) 0 0 0 0 0
05-11-2019 14.8 (13:40) 7 (00:00) 10.9 15.28 (12:40) 10.28 (22:30) 0 0 0 0 0
04-11-2019 21.6 (15:00) 11.7 (00:00) 16.7 15.83 (12:00) 10.56 (13:00) 3.4 0 0 0 3.4
03-11-2019 16.4 (02:50) 10.4 (00:00) 13.4 25.56 (12:50) 18.33 (12:20) 2.8 0 2.8 0 0
02-11-2019 22 (12:30) 14.2 (00:00) 18.1 12.5 (11:50) 8.33 (11:50) 0.2 0 0 0 0.2
01-11-2019 23 (16:00) 13.7 (00:00) 18.3 13.33 (20:40) 8.06 (20:50) 0.4 0 0 0 0.4
31-10-2019 21.4 (14:10) 14.4 (23:20) 17.9 17.78 (12:30) 11.94 (12:30) 0 0 0 0 0
30-10-2019 18.6 (15:30) 9.2 (00:00) 13.9 5.28 (23:59) 3.06 (23:59) 0.2 0.2 0 0 0
29-10-2019 21.9 (16:20) 8.7 (00:00) 15.3 4.72 (18:00) 2.78 (18:10) 0 0 0 0 0
28-10-2019 18 (16:10) 12 (00:00) 15 3.61 (15:30) 2.22 (23:40) 0 0 0 0 0
27-10-2019 20.6 (15:10) 10.7 (00:00) 15.7 3.89 (13:50) 2.5 (13:30) 0 0 0 0 0
26-10-2019 20.9 (16:20) 10 (00:00) 15.4 4.72 (13:00) 3.06 (13:10) 0 0 0 0 0
25-10-2019 22.2 (17:10) 9.9 (00:00) 16.1 10.83 (00:40) 8.06 (00:50) 0 0 0 0 0
24-10-2019 16.8 (16:00) 8.6 (00:00) 12.7 13.33 (16:30) 9.44 (22:20) 0 0 0 0 0
23-10-2019 16.1 (18:10) 9.5 (00:00) 12.8 10.83 (02:40) 6.39 (02:40) 5 5 0 0 0
22-10-2019 -- (--) -- (--) -- -- (--) -- (--) -- 0 1 -- --
21-10-2019 15.4 (15:30) 7.2 (00:00) 11.3 8.33 (01:50) 6.11 (01:50) 0 0 0 0 0
20-10-2019 18.3 (00:10) 9.9 (00:00) 14.1 10.56 (11:00) 7.22 (14:20) 1.2 1.2 0 0 0
19-10-2019 22.8 (15:40) 13 (00:00) 17.9 7.22 (16:50) 4.72 (17:00) 0 0 0 0 0
18-10-2019 19.8 (17:30) 12.4 (00:00) 16.1 4.17 (15:30) 2.78 (15:20) 0.6 0 0 0.4 0.2

Gráficas

Temp. máximas Temp. mínimas Temp. medias Precipitaciones Rachas de viento máximas Velocidades máximas media en intervalos de 10 minutos

Datos horarios

Fecha y hora oficial Temperatura (ºC) Velocidad del viento (km/h) Dirección del viento Racha (km/h) Dirección de racha Precipitación (mm) Presión (hPa) Tendencia (hPa) Humedad (%)
2019-11-16 23:00:00 5.3 18 Noroeste 30 Noroeste 0 -- -- 75
2019-11-16 22:00:00 5.3 18 Noroeste 31 Noroeste 0 -- -- 77
2019-11-16 21:00:00 4.7 15 Oeste 22 Oeste 0 -- -- 78
2019-11-16 20:00:00 4.1 11 Noroeste 18 Oeste 0 -- -- 80
2019-11-16 19:00:00 4.5 11 Noroeste 18 Oeste 0 -- -- 81
2019-11-16 18:00:00 5 8 Noroeste 11 Noroeste 0 -- -- 86
2019-11-16 17:00:00 5.5 9 Noroeste 17 Norte 0 -- -- 86
2019-11-16 16:00:00 5.6 12 Norte 31 Norte 0.4 -- -- 85
2019-11-16 15:00:00 6.8 25 Norte 37 Norte 0 -- -- 75
2019-11-16 14:00:00 6.9 4 Nordeste 11 Nordeste 0 -- -- 71
2019-11-16 13:00:00 6.6 5 Nordeste 12 Norte 0 -- -- 74
2019-11-16 12:00:00 5.3 5 Norte 13 Nordeste 0 -- -- 77
2019-11-16 11:00:00 4.7 9 Nordeste 14 Nordeste 0 -- -- 80
2019-11-16 10:00:00 3.8 9 Norte 14 Noroeste 0 -- -- 80
2019-11-16 09:00:00 3 0 Calma 12 Nordeste 0 -- -- 83
2019-11-16 08:00:00 1.3 8 Norte 23 Noroeste 0 -- -- 86
2019-11-16 07:00:00 2.2 12 Noroeste 30 Noroeste 0 -- -- 83
2019-11-16 06:00:00 2.7 19 Noroeste 34 Noroeste 0 -- -- 82
2019-11-16 05:00:00 2.2 19 Noroeste 35 Noroeste 0 -- -- 84
2019-11-16 04:00:00 2.5 23 Noroeste 36 Noroeste 0 -- -- 84
2019-11-16 03:00:00 2.8 27 Noroeste 41 Oeste 0 -- -- 84
2019-11-16 02:00:00 2.9 23 Oeste 35 Oeste 0 -- -- 84
2019-11-16 01:00:00 3 22 Oeste 36 Noroeste 0 -- -- 83
2019-11-16 00:00:00 3.6 19 Oeste 36 Oeste 0 -- -- 80
2019-11-15 23:00:00 3.8 24 Oeste 35 Oeste 0 -- -- 81
2019-11-15 22:00:00 3.7 14 Noroeste 33 Noroeste 0 -- -- 80
2019-11-15 21:00:00 4 27 Noroeste 37 Noroeste 0 -- -- 81
2019-11-15 20:00:00 4.9 29 Oeste 41 Noroeste 0 -- -- 79
2019-11-15 19:00:00 5.3 33 Noroeste 42 Noroeste 0 -- -- 75
2019-11-15 18:00:00 5.9 19 Noroeste 40 Noroeste 0 -- -- 73
2019-11-15 17:00:00 7.6 26 Noroeste 44 Noroeste 0 -- -- 66
2019-11-15 16:00:00 8 28 Noroeste 48 Noroeste 0 -- -- 64
2019-11-15 15:00:00 8 35 Noroeste 48 Noroeste 0 -- -- 67
2019-11-15 14:00:00 8.6 32 Noroeste 46 Noroeste 0 -- -- 62
2019-11-15 13:00:00 8.5 17 Noroeste 29 Noroeste 0 -- -- 60
2019-11-15 12:00:00 8 10 Noroeste 22 Noroeste 0 -- -- 61
2019-11-15 11:00:00 7.1 6 Noroeste 16 Oeste 0 -- -- 68
2019-11-15 10:00:00 5.7 9 Oeste 20 Noroeste 0 -- -- 74
2019-11-15 09:00:00 3.5 9 Oeste 18 Oeste 0 -- -- 80
2019-11-15 08:00:00 2.6 11 Oeste 21 Oeste 0 -- -- 84
2019-11-15 07:00:00 2.4 13 Noroeste 29 Noroeste 0 -- -- 85
2019-11-15 06:00:00 2.7 18 Noroeste 31 Noroeste 0 -- -- 87
2019-11-15 05:00:00 3.2 21 Noroeste 29 Noroeste 0 -- -- 86
2019-11-15 04:00:00 3.6 18 Oeste 28 Oeste 0 -- -- 84
2019-11-15 03:00:00 3.8 16 Noroeste 24 Noroeste 0 -- -- 82
2019-11-15 02:00:00 4.9 17 Noroeste 21 Noroeste 0 -- -- 78
2019-11-15 01:00:00 4.6 18 Noroeste 24 Noroeste 0 -- -- 80
2019-11-15 00:00:00 5 16 Noroeste 30 Oeste 0 -- -- 77
2019-11-14 23:00:00 5.8 14 Oeste 24 Oeste 0 -- -- 73
2019-11-14 22:00:00 6.4 14 Oeste 20 Oeste 0 -- -- 66
2019-11-14 21:00:00 5.9 9 Oeste 14 Oeste 0 -- -- 69
2019-11-14 20:00:00 6.2 12 Oeste 13 Oeste 0 -- -- 67
2019-11-14 19:00:00 6 10 Oeste 12 Oeste 0 -- -- 70
2019-11-14 18:00:00 6.7 8 Noroeste 24 Noroeste 0 -- -- 67
2019-11-14 17:00:00 8.8 15 Noroeste 32 Noroeste 0 -- -- 60
2019-11-14 16:00:00 9.3 22 Noroeste 36 Noroeste 0 -- -- 57
2019-11-14 15:00:00 9 29 Noroeste 46 Noroeste 0 -- -- 58
2019-11-14 14:00:00 8.3 30 Noroeste 49 Oeste 0 -- -- 65
2019-11-14 13:00:00 7.5 27 Noroeste 41 Oeste 0 -- -- 72
2019-11-14 12:00:00 5.7 31 Oeste 49 Noroeste 0 -- -- 81
2019-11-14 11:00:00 5.1 32 Oeste 46 Noroeste 0.2 -- -- 80
2019-11-14 10:00:00 4.9 27 Oeste 39 Noroeste 0 -- -- 85
2019-11-14 09:00:00 5.2 24 Noroeste 55 Noroeste 0.6 -- -- 86
2019-11-14 08:00:00 6.1 35 Noroeste 49 Noroeste 1 -- -- 84
2019-11-14 07:00:00 5.7 10 Sur 13 Sur 0.4 -- -- 89
2019-11-14 06:00:00 5.8 8 Sur 12 Sur 0.4 -- -- 88
2019-11-14 05:00:00 6 5 Sudeste 12 Sur 0 -- -- 85
2019-11-14 04:00:00 6.1 4 Sur 9 Este 0 -- -- 81
2019-11-14 03:00:00 6.5 7 Este 14 Este 0 -- -- 78
2019-11-14 02:00:00 7 6 Este 10 Sudeste 0 -- -- 77
2019-11-14 01:00:00 7.1 4 Sur 6 Sur 0 -- -- 75
2019-11-14 00:00:00 7.6 7 Sur 12 Sur 0 -- -- 71
2019-11-13 23:00:00 7.7 7 Sudoeste 14 Sudoeste 0 -- -- 70
2019-11-13 22:00:00 8.2 10 Sudoeste 17 Oeste 0 -- -- 66
2019-11-13 21:00:00 8.6 11 Oeste 18 Noroeste 0 -- -- 65
2019-11-13 20:00:00 8.9 9 Oeste 24 Noroeste 0 -- -- 64
2019-11-13 19:00:00 9 19 Noroeste 30 Noroeste 0 -- -- 64
2019-11-13 18:00:00 10 17 Noroeste 41 Noroeste 0 -- -- 61
2019-11-13 17:00:00 11.8 27 Noroeste 60 Noroeste 0 -- -- 53
2019-11-13 16:00:00 12.7 42 Noroeste 62 Noroeste 0 -- -- 54
2019-11-13 15:00:00 13.2 44 Noroeste 66 Noroeste 0 -- -- 51
2019-11-13 14:00:00 13.6 47 Noroeste 65 Noroeste 0 -- -- 52
2019-11-13 13:00:00 13.6 29 Noroeste 42 Noroeste 0 -- -- 64
2019-11-13 12:00:00 11.5 24 Noroeste 45 Noroeste 0 -- -- 74
2019-11-13 11:00:00 9.9 26 Noroeste 37 Noroeste 0 -- -- 83
2019-11-13 10:00:00 8.4 19 Noroeste 30 Noroeste 0.2 -- -- 87
2019-11-13 09:00:00 7.6 8 Noroeste 14 Oeste 3.2 -- -- 91
2019-11-13 08:00:00 7.1 3 Noroeste 12 Nordeste 1.4 -- -- 91
2019-11-13 07:00:00 7.8 10 Nordeste 13 Nordeste 1 -- -- 89
2019-11-13 06:00:00 8.8 4 Noroeste 10 Oeste 0.2 -- -- 81
2019-11-13 05:00:00 8.6 6 Oeste 12 Oeste 0 -- -- 76
2019-11-13 04:00:00 8.3 9 Noroeste 14 Noroeste 0 -- -- 76
2019-11-13 03:00:00 8 10 Noroeste 16 Noroeste 0 -- -- 77
2019-11-13 02:00:00 8.2 12 Noroeste 20 Oeste 0 -- -- 76
2019-11-13 01:00:00 8.7 12 Oeste 20 Oeste 0 -- -- 74
2019-11-13 00:00:00 9 14 Oeste 24 Oeste 0 -- -- 71
2019-11-12 23:00:00 9.3 18 Oeste 26 Oeste 0 -- -- 71
2019-11-12 22:00:00 9.1 12 Oeste 23 Oeste 0 -- -- 72
2019-11-12 21:00:00 8.8 13 Oeste 26 Oeste 0 -- -- 71
2019-11-12 20:00:00 8.3 17 Oeste 27 Noroeste 0 -- -- 73
2019-11-12 19:00:00 9.1 20 Oeste 36 Oeste 0 -- -- 70
2019-11-12 18:00:00 9.8 26 Noroeste 54 Noroeste 0 -- -- 67
2019-11-12 17:00:00 10.7 39 Noroeste 63 Noroeste 0 -- -- 63
2019-11-12 16:00:00 11.8 39 Noroeste 57 Noroeste 0 -- -- 58
2019-11-12 15:00:00 12.1 41 Noroeste 59 Noroeste 0 -- -- 57
2019-11-12 14:00:00 12.2 43 Noroeste 61 Noroeste 0 -- -- 56
2019-11-12 13:00:00 11.9 42 Noroeste 62 Noroeste 0 -- -- 60
2019-11-12 12:00:00 11 43 Noroeste 62 Noroeste 0 -- -- 61
2019-11-12 11:00:00 10.7 34 Noroeste 57 Noroeste 0 -- -- 64
2019-11-12 10:00:00 9.2 39 Noroeste 63 Noroeste 0 -- -- 69
2019-11-12 09:00:00 7.9 42 Noroeste 59 Noroeste 0 -- -- 74
2019-11-12 08:00:00 6.9 34 Noroeste 60 Noroeste 0 -- -- 77
2019-11-12 07:00:00 6.9 37 Noroeste 56 Noroeste 0 -- -- 75
2019-11-12 06:00:00 6.6 28 Noroeste 43 Noroeste 0 -- -- 74
2019-11-12 05:00:00 6.7 26 Noroeste 49 Noroeste 0 -- -- 73
2019-11-12 04:00:00 7 30 Noroeste 44 Noroeste 0 -- -- 68
2019-11-12 03:00:00 6.8 27 Noroeste 42 Noroeste 0 -- -- 70
2019-11-12 02:00:00 6.9 29 Noroeste 46 Noroeste 0 -- -- 70
2019-11-12 01:00:00 7.1 30 Noroeste 53 Noroeste 0 -- -- 69
2019-11-12 00:00:00 7.2 38 Noroeste 59 Noroeste 0 -- -- 70
2019-11-11 23:00:00 7.4 35 Noroeste 53 Noroeste 0 -- -- 70
2019-11-11 22:00:00 7.7 35 Noroeste 63 Noroeste 0 -- -- 68
2019-11-11 21:00:00 8.1 41 Noroeste 70 Noroeste 0 -- -- 65
2019-11-11 20:00:00 8.5 45 Noroeste 76 Noroeste 0 -- -- 63
2019-11-11 19:00:00 9.1 50 Noroeste 73 Noroeste 0 -- -- 66
2019-11-11 18:00:00 9.4 51 Noroeste 73 Noroeste 0 -- -- 72
2019-11-11 17:00:00 9.5 46 Noroeste 67 Noroeste 0 -- -- 76
2019-11-11 16:00:00 10 46 Noroeste 70 Noroeste 0 -- -- 75
2019-11-11 15:00:00 10.8 39 Noroeste 57 Noroeste 0 -- -- 72
2019-11-11 14:00:00 10.7 39 Noroeste 59 Noroeste 0 -- -- 70
2019-11-11 13:00:00 10.5 36 Noroeste 50 Noroeste 0 -- -- 68
2019-11-11 12:00:00 10.1 29 Noroeste 41 Noroeste 0 -- -- 66
2019-11-11 11:00:00 8.9 21 Noroeste 37 Noroeste 0 -- -- 71
2019-11-11 10:00:00 7.4 21 Noroeste 32 Oeste 0 -- -- 75
2019-11-11 09:00:00 6.5 26 Noroeste 37 Noroeste 0 -- -- 77
2019-11-11 08:00:00 5.9 23 Noroeste 35 Noroeste 0 -- -- 78
2019-11-11 07:00:00 5.5 26 Noroeste 39 Noroeste 0 -- -- 79
2019-11-11 06:00:00 5.6 25 Noroeste 37 Noroeste 0 -- -- 76
2019-11-11 05:00:00 4.3 24 Noroeste 33 Noroeste 0 -- -- 82
2019-11-11 04:00:00 4.7 24 Noroeste 44 Noroeste 0 -- -- 79
2019-11-11 03:00:00 4.8 26 Noroeste 42 Noroeste 0 -- -- 77
2019-11-11 02:00:00 4.5 18 Noroeste 36 Noroeste 0 -- -- 78
2019-11-11 01:00:00 4 27 Noroeste 40 Noroeste 0 -- -- 80
2019-11-11 00:00:00 4.5 30 Noroeste 43 Noroeste 0 -- -- 76
2019-11-10 23:00:00 4.8 28 Noroeste 43 Noroeste 0 -- -- 75
2019-11-10 22:00:00 5 29 Noroeste 46 Noroeste 0 -- -- 73
2019-11-10 21:00:00 5.1 35 Noroeste 49 Noroeste 0 -- -- 72
2019-11-10 20:00:00 5.2 35 Noroeste 52 Noroeste 0 -- -- 74
2019-11-10 19:00:00 5.1 34 Noroeste 60 Noroeste 0 -- -- 78
2019-11-10 18:00:00 5.8 39 Noroeste 63 Noroeste 0 -- -- 75
2019-11-10 17:00:00 6.7 41 Noroeste 67 Noroeste 0 -- -- 73
2019-11-10 16:00:00 7.6 53 Noroeste 69 Noroeste 0 -- -- 69
2019-11-10 15:00:00 8 38 Noroeste 60 Noroeste 0 -- -- 69
2019-11-10 14:00:00 7.6 42 Noroeste 69 Noroeste 0 -- -- 71
2019-11-10 13:00:00 8.3 42 Noroeste 66 Noroeste 0 -- -- 70
2019-11-10 12:00:00 8 44 Noroeste 66 Noroeste 0 -- -- 70
2019-11-10 11:00:00 6.9 44 Noroeste 60 Noroeste 0 -- -- 73
2019-11-10 10:00:00 5.9 44 Noroeste 60 Noroeste 0 -- -- 77
2019-11-10 09:00:00 5.3 37 Noroeste 54 Noroeste 0 -- -- 79
2019-11-10 08:00:00 4.4 34 Noroeste 55 Noroeste 0 -- -- 82
2019-11-10 07:00:00 5 33 Noroeste 60 Noroeste 0 -- -- 80
2019-11-10 06:00:00 5.3 42 Noroeste 58 Noroeste 0 -- -- 79
2019-11-10 05:00:00 5.4 36 Noroeste 54 Noroeste 0 -- -- 80
2019-11-10 04:00:00 5.9 43 Noroeste 62 Noroeste 0 -- -- 80
2019-11-10 03:00:00 6.3 44 Noroeste 64 Noroeste 0 -- -- 79
2019-11-10 02:00:00 6.7 37 Noroeste 58 Noroeste 0 -- -- 81
2019-11-10 01:00:00 7 34 Noroeste 53 Noroeste 0 -- -- 84
2019-11-10 00:00:00 7 24 Noroeste 52 Noroeste 2.4 -- -- 88
2019-11-09 23:00:00 8.6 28 Noroeste 45 Noroeste 0.2 -- -- 85
2019-11-09 22:00:00 9.7 25 Oeste 36 Oeste 0 -- -- 73
2019-11-09 21:00:00 9.1 17 Oeste 24 Oeste 0 -- -- 77
2019-11-09 20:00:00 9 12 Noroeste 15 Noroeste 0 -- -- 77
2019-11-09 19:00:00 9.9 8 Noroeste 17 Noroeste 0 -- -- 69
2019-11-09 18:00:00 10.8 12 Noroeste 26 Noroeste 0 -- -- 63
2019-11-09 17:00:00 11.4 14 Noroeste 22 Noroeste 0 -- -- 62
2019-11-09 16:00:00 12 14 Noroeste 28 Noroeste 0 -- -- 58
2019-11-09 15:00:00 11.8 20 Noroeste 45 Oeste 0 -- -- 57
2019-11-09 14:00:00 12.1 27 Noroeste 41 Noroeste 0 -- -- 57
2019-11-09 13:00:00 12 31 Noroeste 51 Noroeste 0 -- -- 57
2019-11-09 12:00:00 12 35 Noroeste 48 Noroeste 0 -- -- 57
2019-11-09 11:00:00 11 30 Noroeste 54 Oeste 0 -- -- 63
2019-11-09 10:00:00 9.3 36 Noroeste 51 Oeste 0 -- -- 69
2019-11-09 09:00:00 7.6 29 Noroeste 49 Noroeste 0 -- -- 75
2019-11-09 08:00:00 6.9 35 Noroeste 55 Noroeste 0 -- -- 76
2019-11-09 07:00:00 6.7 35 Noroeste 60 Noroeste 0 -- -- 77
2019-11-09 06:00:00 6.7 39 Noroeste 60 Noroeste 0 -- -- 78
2019-11-09 05:00:00 6.4 31 Noroeste 53 Noroeste 0 -- -- 78
2019-11-09 04:00:00 6.7 33 Noroeste 61 Noroeste 0 -- -- 77
2019-11-09 03:00:00 6.8 39 Noroeste 59 Noroeste 0 -- -- 77
2019-11-09 02:00:00 6.9 44 Noroeste 67 Noroeste 0 -- -- 77
2019-11-09 01:00:00 6.9 46 Noroeste 67 Noroeste 0 -- -- 78
2019-11-09 00:00:00 6.8 43 Noroeste 64 Noroeste 0 -- -- 79
2019-11-08 23:00:00 6.3 42 Noroeste 60 Noroeste 0 -- -- 79
2019-11-08 22:00:00 6.7 40 Noroeste 62 Noroeste 0.2 -- -- 81
2019-11-08 21:00:00 6.2 30 Noroeste 62 Oeste 0.2 -- -- 83
2019-11-08 20:00:00 6.1 39 Noroeste 59 Noroeste 0 -- -- 81
2019-11-08 19:00:00 6.3 34 Noroeste 56 Noroeste 0 -- -- 80
2019-11-08 18:00:00 6.4 39 Noroeste 57 Noroeste 0 -- -- 78
2019-11-08 17:00:00 7.3 39 Noroeste 67 Noroeste 0 -- -- 75
2019-11-08 16:00:00 7.3 54 Noroeste 77 Noroeste 0.2 -- -- 74
2019-11-08 15:00:00 9.9 49 Noroeste 71 Noroeste 0 -- -- 57
2019-11-08 14:00:00 10.5 36 Noroeste 63 Noroeste 0 -- -- 55
2019-11-08 13:00:00 10.5 46 Noroeste 66 Noroeste 0 -- -- 52
2019-11-08 12:00:00 9.9 44 Noroeste 65 Noroeste 0 -- -- 53
2019-11-08 11:00:00 8.7 32 Noroeste 49 Noroeste 0 -- -- 59
2019-11-08 10:00:00 7.5 21 Noroeste 40 Noroeste 0 -- -- 62
2019-11-08 09:00:00 5.2 19 Noroeste 27 Noroeste 0 -- -- 72
2019-11-08 08:00:00 4.1 11 Oeste 22 Noroeste 0 -- -- 79
2019-11-08 07:00:00 3.8 18 Noroeste 23 Noroeste 0 -- -- 78
2019-11-08 06:00:00 3 13 Noroeste 23 Noroeste 0 -- -- 80
2019-11-08 05:00:00 4.1 18 Noroeste 25 Noroeste 0 -- -- 77
2019-11-08 04:00:00 3.8 18 Noroeste 22 Noroeste 0 -- -- 80
2019-11-08 03:00:00 4.2 14 Oeste 20 Oeste 0 -- -- 79
2019-11-08 02:00:00 5 13 Oeste 22 Oeste 0 -- -- 74
2019-11-08 01:00:00 5.5 15 Oeste 24 Oeste 0 -- -- 75
2019-11-08 00:00:00 5.2 11 Oeste 20 Oeste 0 -- -- 77
2019-11-07 23:00:00 5.1 8 Oeste 44 Norte 0 -- -- 82
2019-11-07 22:00:00 6.4 13 Noroeste 24 Norte 0 -- -- 83
2019-11-07 21:00:00 8 18 Noroeste 27 Noroeste 0 -- -- 76
2019-11-07 20:00:00 9 14 Oeste 22 Oeste 0 -- -- 65
2019-11-07 19:00:00 8.7 14 Oeste 26 Noroeste 0 -- -- 66
2019-11-07 18:00:00 9.5 20 Noroeste 27 Oeste 0 -- -- 63
2019-11-07 17:00:00 11.1 18 Noroeste 32 Noroeste 0 -- -- 56
2019-11-07 16:00:00 11.3 22 Noroeste 39 Noroeste 0 -- -- 58
2019-11-07 15:00:00 11.8 28 Noroeste 42 Noroeste 0 -- -- 59
2019-11-07 14:00:00 10.8 27 Noroeste 53 Noroeste 0 -- -- 64
2019-11-07 13:00:00 11.2 33 Noroeste 52 Noroeste 0 -- -- 67
2019-11-07 12:00:00 12 27 Noroeste 44 Noroeste 0 -- -- 68
2019-11-07 11:00:00 11.4 22 Noroeste 32 Noroeste 0 -- -- 75
2019-11-07 10:00:00 10.5 13 Noroeste 20 Norte 0 -- -- 84
2019-11-07 09:00:00 8.6 4 Oeste 7 Oeste 0 -- -- 86
2019-11-07 08:00:00 7.7 3 Noroeste 8 Sur 0 -- -- 86
2019-11-07 07:00:00 7.8 6 Sur 9 Sur 0 -- -- 83
2019-11-07 06:00:00 8.4 4 Sudeste 8 Noroeste 0 -- -- 82
2019-11-07 05:00:00 8.7 4 Nordeste 8 Este 0 -- -- 79
2019-11-07 04:00:00 9 6 Sudeste 9 Sudeste 0 -- -- 73
2019-11-07 03:00:00 8.3 4 Nordeste 8 Nordeste 0 -- -- 78
2019-11-07 02:00:00 8.7 4 Nordeste 11 Nordeste 0 -- -- 75
2019-11-07 01:00:00 9 5 Norte 15 Oeste 0 -- -- 73
2019-11-07 00:00:00 10.3 5 Sudoeste 20 Oeste 0 -- -- 66
2019-11-06 23:00:00 10.3 6 Oeste 15 Oeste 0 -- -- 66
2019-11-06 22:00:00 10.3 10 Oeste 19 Oeste 0 -- -- 68
2019-11-06 21:00:00 10.2 13 Oeste 23 Oeste 0 -- -- 70
2019-11-06 20:00:00 10.6 16 Oeste 22 Oeste 0 -- -- 69
2019-11-06 19:00:00 10.1 14 Noroeste 33 Noroeste 0 -- -- 71
2019-11-06 18:00:00 11.7 24 Noroeste 39 Noroeste 0 -- -- 65
2019-11-06 17:00:00 13.2 31 Noroeste 46 Noroeste 0 -- -- 57
2019-11-06 16:00:00 13.2 32 Noroeste 51 Noroeste 0 -- -- 57
2019-11-06 15:00:00 14 35 Noroeste 54 Noroeste 0 -- -- 53
2019-11-06 14:00:00 13.9 36 Noroeste 55 Noroeste 0 -- -- 54
2019-11-06 13:00:00 13.7 38 Noroeste 55 Noroeste 0 -- -- 57
2019-11-06 12:00:00 12.6 36 Noroeste 64 Noroeste 0 -- -- 61
2019-11-06 11:00:00 12.5 48 Noroeste 65 Noroeste 0 -- -- 61
2019-11-06 10:00:00 11.4 33 Noroeste 53 Noroeste 0 -- -- 67
2019-11-06 09:00:00 9.8 37 Noroeste 55 Oeste 0 -- -- 72
2019-11-06 08:00:00 9 33 Noroeste 48 Oeste 0 -- -- 74
2019-11-06 07:00:00 9.2 29 Noroeste 49 Noroeste 0 -- -- 75
2019-11-06 06:00:00 9.3 39 Noroeste 53 Noroeste 0 -- -- 76
2019-11-06 05:00:00 9 28 Noroeste 49 Noroeste 0 -- -- 78
2019-11-06 04:00:00 8.9 33 Noroeste 54 Noroeste 0 -- -- 78
2019-11-06 03:00:00 8.5 33 Noroeste 50 Noroeste 0 -- -- 79
2019-11-06 02:00:00 8.3 31 Noroeste 49 Noroeste 0 -- -- 77
2019-11-06 01:00:00 8.8 33 Noroeste 56 Noroeste 0 -- -- 75
2019-11-06 00:00:00 9 33 Noroeste 54 Noroeste 0 -- -- 75
2019-11-05 23:00:00 8.9 30 Noroeste 55 Noroeste 0 -- -- 74
2019-11-05 22:00:00 9.3 31 Noroeste 54 Noroeste 0 -- -- 72
2019-11-05 21:00:00 9.4 26 Noroeste 55 Noroeste 0 -- -- 71
2019-11-05 20:00:00 9.8 30 Noroeste 51 Noroeste 0 -- -- 68
2019-11-05 19:00:00 10.4 33 Noroeste 49 Noroeste 0 -- -- 65
2019-11-05 18:00:00 11.3 25 Noroeste 54 Noroeste 0 -- -- 62
2019-11-05 17:00:00 13 30 Noroeste 50 Noroeste 0 -- -- 59
2019-11-05 16:00:00 13.7 26 Noroeste 42 Noroeste 0 -- -- 53
2019-11-05 15:00:00 13.5 31 Noroeste 44 Noroeste 0 -- -- 55
2019-11-05 14:00:00 13.9 33 Noroeste 55 Norte 0 -- -- 52
2019-11-05 13:00:00 14.3 28 Noroeste 55 Noroeste 0 -- -- 50
2019-11-05 12:00:00 13.8 27 Oeste 42 Oeste 0 -- -- 53
2019-11-05 11:00:00 12.4 22 Noroeste 39 Noroeste 0 -- -- 59
2019-11-05 10:00:00 11 21 Noroeste 31 Oeste 0 -- -- 64
2019-11-05 09:00:00 9.2 10 Noroeste 21 Noroeste 0 -- -- 75
2019-11-05 08:00:00 7 11 Noroeste 17 Oeste 0 -- -- 78
2019-11-05 07:00:00 7.8 10 Oeste 19 Noroeste 0 -- -- 75
2019-11-05 06:00:00 8.6 16 Noroeste 24 Oeste 0 -- -- 75
2019-11-05 05:00:00 9.3 13 Oeste 18 Oeste 0 -- -- 76
2019-11-05 04:00:00 9.8 13 Oeste 18 Oeste 0 -- -- 76
2019-11-05 03:00:00 10 12 Oeste 17 Oeste 0 -- -- 77
2019-11-05 02:00:00 10.3 12 Oeste 19 Oeste 0 -- -- 80
2019-11-05 01:00:00 11 14 Noroeste 21 Oeste 0 -- -- 80
2019-11-05 00:00:00 12.1 14 Oeste 35 Oeste 0 -- -- 82
2019-11-04 23:00:00 13.1 22 Oeste 35 Oeste 0 -- -- 72
2019-11-04 22:00:00 13.4 14 Oeste 19 Oeste 0 -- -- 83
2019-11-04 21:00:00 13.3 5 Sur 8 Oeste 0.2 -- -- 87
2019-11-04 20:00:00 13.2 10 Noroeste 29 Noroeste 3 -- -- 89
2019-11-04 19:00:00 14 19 Noroeste 40 Oeste 0.2 -- -- 86
2019-11-04 18:00:00 17.5 23 Oeste 45 Oeste 0 -- -- 61
2019-11-04 17:00:00 20.1 14 Sudoeste 34 Oeste 0 -- -- 46
2019-11-04 16:00:00 21.3 18 Oeste 44 Oeste 0 -- -- 43
2019-11-04 15:00:00 21.6 29 Oeste 51 Oeste 0 -- -- 42
2019-11-04 14:00:00 20.6 26 Oeste 55 Oeste 0 -- -- 45
2019-11-04 13:00:00 20.5 38 Oeste 57 Oeste 0 -- -- 45
2019-11-04 12:00:00 19.6 35 Oeste 57 Noroeste 0 -- -- 47
2019-11-04 11:00:00 18.8 28 Oeste 54 Oeste 0 -- -- 49
2019-11-04 10:00:00 17.4 27 Oeste 43 Oeste 0 -- -- 51
2019-11-04 09:00:00 16.9 22 Oeste 42 Oeste 0 -- -- 52
2019-11-04 08:00:00 15.1 18 Oeste 31 Oeste 0 -- -- 56
2019-11-04 07:00:00 15.5 19 Oeste 32 Noroeste 0 -- -- 62
2019-11-04 06:00:00 14.1 11 Oeste 21 Oeste 0 -- -- 66
2019-11-04 05:00:00 15.4 11 Oeste 31 Oeste 0 -- -- 62
2019-11-04 04:00:00 15.1 15 Oeste 31 Oeste 0 -- -- 62
2019-11-04 03:00:00 14.9 14 Oeste 28 Oeste 0 -- -- 59
2019-11-04 02:00:00 14.7 17 Oeste 30 Oeste 0 -- -- 60
2019-11-04 01:00:00 12.2 7 Norte 19 Noroeste 0 -- -- 65
2019-11-04 00:00:00 12.7 13 Noroeste 37 Oeste 0 -- -- 62
2019-11-03 23:00:00 12.6 15 Oeste 26 Oeste 0 -- -- 60
2019-11-03 22:00:00 12.1 14 Oeste 22 Oeste 0 -- -- 60
2019-11-03 21:00:00 12.5 16 Oeste 25 Oeste 0 -- -- 54
2019-11-03 20:00:00 12.6 13 Oeste 21 Noroeste 0 -- -- 53
2019-11-03 19:00:00 12.3 8 Oeste 25 Noroeste 0 -- -- 55
2019-11-03 18:00:00 13.4 17 Noroeste 55 Norte 0 -- -- 51
2019-11-03 17:00:00 15 35 Noroeste 60 Noroeste 0 -- -- 45
2019-11-03 16:00:00 15.5 46 Noroeste 71 Noroeste 0 -- -- 42
2019-11-03 15:00:00 15.4 53 Noroeste 77 Noroeste 0 -- -- 45
2019-11-03 14:00:00 15.3 50 Noroeste 87 Noroeste 0 -- -- 44
2019-11-03 13:00:00 14.8 55 Noroeste 92 Noroeste 0 -- -- 46
2019-11-03 12:00:00 13.9 64 Noroeste 90 Noroeste 0 -- -- 50
2019-11-03 11:00:00 13.1 53 Noroeste 74 Noroeste 0 -- -- 55
2019-11-03 10:00:00 11.8 40 Noroeste 57 Noroeste 0 -- -- 71
2019-11-03 09:00:00 10.5 36 Norte 75 Noroeste 1.8 -- -- 78
2019-11-03 08:00:00 13.4 25 Oeste 59 Oeste 1 -- -- 82
2019-11-03 07:00:00 14.7 28 Oeste 45 Oeste 0 -- -- 68
2019-11-03 06:00:00 15.6 17 Sudoeste 47 Oeste 0 -- -- 63
2019-11-03 05:00:00 15.8 23 Oeste 50 Oeste 0 -- -- 57
2019-11-03 04:00:00 16.3 23 Oeste 40 Oeste 0 -- -- 54
2019-11-03 03:00:00 16.3 18 Oeste 39 Oeste 0 -- -- 53
2019-11-03 02:00:00 16.2 28 Oeste 46 Oeste 0 -- -- 56
2019-11-03 01:00:00 16 21 Oeste 39 Oeste 0 -- -- 58
2019-11-03 00:00:00 15.5 13 Oeste 33 Sudoeste 0.2 -- -- 79
2019-11-02 23:00:00 15.8 16 Sudoeste 30 Sudoeste 0 -- -- 78
2019-11-02 22:00:00 17.9 12 Sudoeste 26 Sudoeste 0 -- -- 60
2019-11-02 21:00:00 18 13 Oeste 21 Oeste 0 -- -- 57
2019-11-02 20:00:00 17.9 11 Oeste 19 Oeste 0 -- -- 58
2019-11-02 19:00:00 18.4 14 Oeste 21 Oeste 0 -- -- 57
2019-11-02 18:00:00 18.6 12 Oeste 26 Oeste 0 -- -- 56
2019-11-02 17:00:00 20.3 21 Oeste 44 Noroeste 0 -- -- 51
2019-11-02 16:00:00 20.7 23 Oeste 41 Oeste 0 -- -- 54
2019-11-02 15:00:00 20.5 24 Oeste 38 Oeste 0 -- -- 57
2019-11-02 14:00:00 21.9 24 Noroeste 38 Noroeste 0 -- -- 49
2019-11-02 13:00:00 20.7 22 Oeste 44 Oeste 0 -- -- 53
2019-11-02 12:00:00 21.2 29 Oeste 45 Oeste 0 -- -- 52
2019-11-02 11:00:00 19.4 24 Oeste 39 Oeste 0 -- -- 59
2019-11-02 10:00:00 18.2 4 Norte 34 Oeste 0 -- -- 64
2019-11-02 09:00:00 14.9 5 Sudeste 17 Sudeste 0 -- -- 81
2019-11-02 08:00:00 16.3 3 Norte 23 Noroeste 0 -- -- 71
2019-11-02 07:00:00 16.1 13 Noroeste 27 Oeste 0 -- -- 71
2019-11-02 06:00:00 16.7 16 Oeste 33 Oeste 0 -- -- 69
2019-11-02 05:00:00 16.1 15 Oeste 23 Oeste 0 -- -- 72
2019-11-02 04:00:00 15.2 12 Noroeste 20 Oeste 0 -- -- 78
2019-11-02 03:00:00 16.7 14 Oeste 22 Oeste 0 -- -- 72
2019-11-02 02:00:00 16.4 9 Noroeste 25 Oeste 0 -- -- 75
2019-11-02 01:00:00 16.9 10 Noroeste 19 Nordeste 0 -- -- 76
2019-11-02 00:00:00 16.4 8 Nordeste 16 Norte 0 -- -- 84
2019-11-01 23:00:00 17 9 Norte 25 Noroeste 0 -- -- 81
2019-11-01 22:00:00 18.1 15 Oeste 40 Oeste 0.2 -- -- 76
2019-11-01 21:00:00 18.9 26 Oeste 48 Sudoeste 0 -- -- 75
2019-11-01 20:00:00 19.2 12 Oeste 23 Oeste 0 -- -- 72
2019-11-01 19:00:00 19.1 7 Sudoeste 30 Oeste 0.2 -- -- 76
2019-11-01 18:00:00 21 4 Sudeste 10 Noroeste 0 -- -- 62
2019-11-01 17:00:00 22.1 4 Oeste 12 Noroeste 0 -- -- 56
2019-11-01 16:00:00 23 8 Noroeste 18 Norte 0 -- -- 53
2019-11-01 15:00:00 22.6 12 Noroeste 24 Noroeste 0 -- -- 57
2019-11-01 14:00:00 22.1 11 Noroeste 25 Noroeste 0 -- -- 56
2019-11-01 13:00:00 21.3 15 Noroeste 30 Norte 0 -- -- 59
2019-11-01 12:00:00 21.1 21 Noroeste 32 Noroeste 0 -- -- 60
2019-11-01 11:00:00 19.5 15 Noroeste 26 Noroeste 0 -- -- 64
2019-11-01 10:00:00 17.5 4 Norte 17 Noroeste 0 -- -- 67
2019-11-01 09:00:00 17 10 Noroeste 15 Oeste 0 -- -- 67
2019-11-01 08:00:00 16.3 11 Oeste 20 Oeste 0 -- -- 68
2019-11-01 07:00:00 15.8 10 Oeste 14 Noroeste 0 -- -- 70
2019-11-01 06:00:00 15.6 9 Noroeste 18 Noroeste 0 -- -- 70
2019-11-01 05:00:00 15.3 14 Noroeste 19 Oeste 0 -- -- 69
2019-11-01 04:00:00 15.6 13 Oeste 20 Oeste 0 -- -- 67
2019-11-01 03:00:00 14.8 13 Oeste 21 Oeste 0 -- -- 69
2019-11-01 02:00:00 13.9 13 Oeste 25 Noroeste 0 -- -- 70
2019-11-01 01:00:00 13.8 15 Noroeste 23 Noroeste 0 -- -- 71
2019-11-01 00:00:00 14.6 19 Noroeste 30 Noroeste 0 -- -- 66
2019-10-31 23:00:00 14.5 20 Noroeste 31 Oeste 0 -- -- 65
2019-10-31 22:00:00 15.4 18 Noroeste 46 Noroeste 0 -- -- 60
2019-10-31 21:00:00 15.9 30 Noroeste 39 Noroeste 0 -- -- 59
2019-10-31 20:00:00 16.2 23 Noroeste 44 Noroeste 0 -- -- 60
2019-10-31 19:00:00 17.3 32 Noroeste 46 Noroeste 0 -- -- 55
2019-10-31 18:00:00 18.2 32 Noroeste 54 Noroeste 0 -- -- 55
2019-10-31 17:00:00 19.6 38 Noroeste 56 Noroeste 0 -- -- 49
2019-10-31 16:00:00 20.5 36 Noroeste 58 Noroeste 0 -- -- 48
2019-10-31 15:00:00 20.8 40 Noroeste 60 Norte 0 -- -- 46
2019-10-31 14:00:00 21.1 37 Noroeste 58 Noroeste 0 -- -- 49
2019-10-31 13:00:00 20.9 36 Noroeste 64 Noroeste 0 -- -- 51
2019-10-31 12:00:00 20.2 38 Noroeste 56 Noroeste 0 -- -- 54
2019-10-31 11:00:00 19.3 36 Noroeste 49 Noroeste 0 -- -- 61
2019-10-31 10:00:00 17.9 35 Noroeste 51 Noroeste 0 -- -- 69
2019-10-31 09:00:00 16.4 27 Noroeste 46 Oeste 0 -- -- 76
2019-10-31 08:00:00 16.2 29 Noroeste 45 Noroeste 0 -- -- 76
2019-10-31 07:00:00 16.3 25 Oeste 42 Oeste 0 -- -- 76
2019-10-31 06:00:00 16.6 27 Noroeste 42 Noroeste 0 -- -- 77
2019-10-31 05:00:00 16.1 14 Noroeste 25 Noroeste 0 -- -- 76
2019-10-31 04:00:00 16.6 18 Noroeste 26 Noroeste 0 -- -- 71
2019-10-31 03:00:00 16.8 14 Noroeste 21 Oeste 0 -- -- 69
2019-10-31 02:00:00 16 14 Noroeste 21 Noroeste 0 -- -- 73
2019-10-31 01:00:00 16.8 13 Oeste 19 Oeste 0 -- -- 69
2019-10-31 00:00:00 15.7 11 Oeste 19 Oeste 0 -- -- 73
2019-10-30 23:00:00 15.1 6 Noroeste 9 Noroeste 0 -- -- 75
2019-10-30 22:00:00 14.1 0 Calma 6 Sur 0 -- -- 89
2019-10-30 21:00:00 14.1 3 Sur 6 Sudeste 0 -- -- 89
2019-10-30 20:00:00 14.2 5 Sur 8 Sur 0 -- -- 88
2019-10-30 19:00:00 15 5 Sur 8 Sudeste 0 -- -- 85
2019-10-30 18:00:00 16.5 3 Sur 7 Este 0 -- -- 81
2019-10-30 17:00:00 17.3 4 Sudeste 12 Sudeste 0 -- -- 77
2019-10-30 16:00:00 18.5 7 Sur 11 Sur 0 -- -- 71
2019-10-30 15:00:00 17.9 6 Sur 11 Sudeste 0 -- -- 74
2019-10-30 14:00:00 16.5 6 Sudeste 13 Sudeste 0 -- -- 80
2019-10-30 13:00:00 14.2 6 Sudeste 10 Sudeste 0 -- -- 92
2019-10-30 12:00:00 12.6 4 Sur 7 Sur 0 -- -- 95
2019-10-30 11:00:00 11.2 4 Sudeste 6 Sur 0 -- -- 95
2019-10-30 10:00:00 10.6 2 Sur 6 Norte 0 -- -- 96
2019-10-30 09:00:00 9.8 0 Calma 6 Noroeste 0 -- -- 96
2019-10-30 08:00:00 9.3 3 Norte 7 Noroeste 0 -- -- 95
2019-10-30 07:00:00 10.3 3 Noroeste 4 Noroeste 0 -- -- 95
2019-10-30 06:00:00 10.5 2 Sur 6 Sudoeste 0.2 -- -- 95
2019-10-30 05:00:00 10.5 2 Norte 4 Norte 0 -- -- 95
2019-10-30 04:00:00 10.7 0 Calma 4 Sudoeste 0 -- -- 94
2019-10-30 03:00:00 11.2 2 Sudoeste 5 Sudoeste 0 -- -- 94
2019-10-30 02:00:00 11.5 0 Calma 6 Sur 0 -- -- 94
2019-10-30 01:00:00 11.5 3 Sur 8 Sudeste 0 -- -- 93
2019-10-30 00:00:00 11.4 2 Sur 5 Sudeste 0 -- -- 93
2019-10-29 23:00:00 12.3 5 Sudeste 8 Sudeste 0 -- -- 92
2019-10-29 22:00:00 13.5 5 Sur 9 Sudoeste 0 -- -- 90
2019-10-29 21:00:00 14.3 8 Sur 11 Sur 0 -- -- 88
2019-10-29 20:00:00 15.5 2 Sur 14 Sudeste 0 -- -- 85
2019-10-29 19:00:00 16.5 7 Sur 14 Sudeste 0 -- -- 81
2019-10-29 18:00:00 18.8 8 Sudeste 17 Sudeste 0 -- -- 71
2019-10-29 17:00:00 21.3 4 Sudeste 9 Sur 0 -- -- 62
2019-10-29 16:00:00 21.7 5 Sur 10 Este 0 -- -- 60
2019-10-29 15:00:00 20.7 7 Sudeste 12 Sudeste 0 -- -- 63
2019-10-29 14:00:00 19 5 Este 11 Sudeste 0 -- -- 70
2019-10-29 13:00:00 16.5 4 Sudeste 10 Este 0 -- -- 80
2019-10-29 12:00:00 13.4 5 Sudeste 9 Sudeste 0 -- -- 93
2019-10-29 11:00:00 12.3 3 Sur 6 Sur 0 -- -- 95
2019-10-29 10:00:00 11 3 Norte 8 Norte 0 -- -- 95
2019-10-29 09:00:00 8.7 8 Norte 9 Norte 0 -- -- 95
2019-10-29 08:00:00 9.4 5 Norte 6 Norte 0 -- -- 91
2019-10-29 07:00:00 10.4 2 Oeste 9 Noroeste 0 -- -- 93
2019-10-29 06:00:00 10.7 4 Oeste 6 Oeste 0 -- -- 92
2019-10-29 05:00:00 10.9 4 Norte 6 Nordeste 0 -- -- 92
2019-10-29 04:00:00 11.4 0 Calma 3 Sur 0 -- -- 88
2019-10-29 03:00:00 12.1 3 Sudoeste 7 Sudoeste 0 -- -- 89
2019-10-29 02:00:00 11.4 5 Sudoeste 6 Noroeste 0 -- -- 89
2019-10-29 01:00:00 11.7 6 Noroeste 9 Noroeste 0 -- -- 88
2019-10-29 00:00:00 12 4 Noroeste 10 Noroeste 0 -- -- 87
2019-10-28 23:00:00 12.7 0 Calma 5 Oeste 0 -- -- 86
2019-10-28 22:00:00 12.8 4 Noroeste 6 Norte 0 -- -- 85
2019-10-28 21:00:00 13.8 4 Sudoeste 8 Sudoeste 0 -- -- 83
2019-10-28 20:00:00 14.2 6 Sudoeste 8 Sudoeste 0 -- -- 81
2019-10-28 19:00:00 15.3 0 Calma 7 Sudeste 0 -- -- 78
2019-10-28 18:00:00 16.1 7 Sudeste 11 Sudeste 0 -- -- 75
2019-10-28 17:00:00 17.4 6 Sudeste 10 Sudeste 0 -- -- 71
2019-10-28 16:00:00 17.9 5 Sudoeste 13 Sudeste 0 -- -- 70
2019-10-28 15:00:00 16.8 6 Sudeste 12 Nordeste 0 -- -- 72
2019-10-28 14:00:00 16.9 3 Sur 7 Nordeste 0 -- -- 72
2019-10-28 13:00:00 15.6 4 Sudeste 9 Nordeste 0 -- -- 76
2019-10-28 12:00:00 15 6 Nordeste 10 Nordeste 0 -- -- 79
2019-10-28 11:00:00 14.5 3 Sur 10 Este 0 -- -- 81
2019-10-28 10:00:00 13.4 6 Sudeste 10 Sudeste 0 -- -- 83
2019-10-28 09:00:00 12.9 4 Noroeste 11 Oeste 0 -- -- 85
2019-10-28 08:00:00 12.7 0 Calma 5 Noroeste 0 -- -- 84
2019-10-28 07:00:00 12.9 0 Calma 3 Oeste 0 -- -- 82
2019-10-28 06:00:00 12.8 0 Calma 3 Sudoeste 0 -- -- 81
2019-10-28 05:00:00 12.8 2 Oeste 6 Noroeste 0 -- -- 81
2019-10-28 04:00:00 13 3 Noroeste 5 Noroeste 0 -- -- 81
2019-10-28 03:00:00 13.2 0 Calma 4 Nordeste 0 -- -- 78
2019-10-28 02:00:00 13.8 4 Este 5 Este 0 -- -- 77
2019-10-28 01:00:00 13.5 0 Calma 7 Sudeste 0 -- -- 77
2019-10-28 00:00:00 14.7 3 Sudoeste 6 Oeste 0 -- -- 72
2019-10-27 23:00:00 15 4 Oeste 5 Oeste 0 -- -- 71
2019-10-27 22:00:00 15.1 4 Sudoeste 6 Sudoeste 0 -- -- 70
2019-10-27 21:00:00 15.3 4 Sudoeste 6 Sudoeste 0 -- -- 69
2019-10-27 20:00:00 15.5 4 Sudoeste 8 Sudoeste 0 -- -- 68
2019-10-27 19:00:00 16.4 4 Sudoeste 9 Sudeste 0 -- -- 66
2019-10-27 18:00:00 18.1 5 Este 12 Sudeste 0 -- -- 60
2019-10-27 17:00:00 19.7 9 Sudeste 14 Sudeste 0 -- -- 55
2019-10-27 16:00:00 20.3 7 Sudeste 14 Sudeste 0 -- -- 53
2019-10-27 15:00:00 20.5 5 Sudeste 14 Sudeste 0 -- -- 50
2019-10-27 14:00:00 19.6 7 Sudeste 14 Este 0 -- -- 53
2019-10-27 13:00:00 19 7 Sudeste 13 Sudeste 0 -- -- 57
2019-10-27 12:00:00 18.2 8 Sudeste 13 Sur 0 -- -- 59
2019-10-27 11:00:00 16.6 5 Sudeste 10 Sudeste 0 -- -- 67
2019-10-27 10:00:00 15.1 3 Sur 6 Sur 0 -- -- 72
2019-10-27 09:00:00 13 3 Sudoeste 4 Sudeste 0 -- -- 77
2019-10-27 08:00:00 11.7 0 Calma 6 Oeste 0 -- -- 80
2019-10-27 07:00:00 11.2 5 Sudoeste 9 Sudoeste 0 -- -- 82
2019-10-27 06:00:00 11.3 5 Sudoeste 8 Sudoeste 0 -- -- 82
2019-10-27 05:00:00 10.7 4 Oeste 6 Oeste 0 -- -- 86
2019-10-27 04:00:00 11.3 4 Sudoeste 6 Oeste 0 -- -- 84
2019-10-27 03:00:00 11.5 5 Sudoeste 8 Oeste 0 -- -- 83
2019-10-27 02:00:00 11.6 0 Calma 6 Norte 0 -- -- 82
2019-10-27 01:00:00 12.8 8 Noroeste 9 Noroeste 0 -- -- 80
2019-10-27 00:00:00 13.5 0 Calma 5 Norte 0 -- -- 77
2019-10-26 23:00:00 14.1 3 Sudoeste 6 Sudoeste 0 -- -- 74
2019-10-26 22:00:00 14.9 3 Sudoeste 8 Sudoeste 0 -- -- 73
2019-10-26 21:00:00 16 3 Sur 6 Sudoeste 0 -- -- 69
2019-10-26 20:00:00 17 3 Sudoeste 8 Sudeste 0 -- -- 67
2019-10-26 19:00:00 18.9 5 Este 10 Sudeste 0 -- -- 61
2019-10-26 18:00:00 20.3 6 Sudeste 13 Sudeste 0 -- -- 54
2019-10-26 17:00:00 20.8 8 Sudeste 14 Sudeste 0 -- -- 52
2019-10-26 16:00:00 20.6 5 Sudeste 13 Sudeste 0 -- -- 51
2019-10-26 15:00:00 20.1 7 Sur 14 Sudeste 0 -- -- 49
2019-10-26 14:00:00 18.9 7 Sudeste 16 Sudeste 0 -- -- 51
2019-10-26 13:00:00 17.8 9 Sudeste 17 Este 0 -- -- 57
2019-10-26 12:00:00 16.9 4 Sur 8 Sur 0 -- -- 62
2019-10-26 11:00:00 15 2 Sudoeste 4 Oeste 0 -- -- 70
2019-10-26 10:00:00 12.8 0 Calma -- -- 0 -- -- 81
2019-10-26 09:00:00 10.3 0 Calma 5 Noroeste 0 -- -- 88
2019-10-26 08:00:00 10.3 0 Calma 3 Sudoeste 0 -- -- 86
2019-10-26 07:00:00 10.7 3 Sudoeste 6 Sudoeste 0 -- -- 84
2019-10-26 06:00:00 10.7 2 Sudoeste 5 Sudoeste 0 -- -- 84
2019-10-26 05:00:00 10.9 4 Sudoeste 6 Sudoeste 0 -- -- 86
2019-10-26 04:00:00 11.3 2 Oeste 5 Noroeste 0 -- -- 88
2019-10-26 03:00:00 11.5 4 Sudoeste 6 Oeste 0 -- -- 88
2019-10-26 02:00:00 11.6 2 Sur 4 Oeste 0 -- -- 83
2019-10-26 01:00:00 11.9 0 Calma 4 Norte 0 -- -- 87
2019-10-26 00:00:00 12.1 0 Calma 3 Sur 0 -- -- 86
2019-10-25 23:00:00 12.7 0 Calma 9 Sudeste 0 -- -- 85
2019-10-25 22:00:00 14.1 6 Este 9 Este 0 -- -- 80
2019-10-25 21:00:00 15.2 6 Sudeste 15 Sudeste 0 -- -- 76
2019-10-25 20:00:00 16.3 10 Sudeste 17 Sudeste 0 -- -- 72
2019-10-25 19:00:00 18.3 11 Sudeste 17 Sudeste 0 -- -- 64
2019-10-25 18:00:00 21.6 5 Sudeste 13 Sudeste 0 -- -- 54
2019-10-25 17:00:00 22 9 Noroeste 17 Noroeste 0 -- -- 48
2019-10-25 16:00:00 21.5 8 Noroeste 18 Noroeste 0 -- -- 50
2019-10-25 15:00:00 20.9 9 Noroeste 20 Oeste 0 -- -- 52
2019-10-25 14:00:00 20.1 10 Noroeste 21 Noroeste 0 -- -- 55
2019-10-25 13:00:00 18.4 15 Noroeste 29 Noroeste 0 -- -- 59
2019-10-25 12:00:00 16.5 21 Noroeste 27 Noroeste 0 -- -- 63
2019-10-25 11:00:00 15.1 15 Noroeste 27 Noroeste 0 -- -- 69
2019-10-25 10:00:00 12.9 11 Noroeste 22 Noroeste 0 -- -- 78
2019-10-25 09:00:00 10.2 14 Noroeste 17 Noroeste 0 -- -- 86
2019-10-25 08:00:00 10.2 7 Noroeste 17 Noroeste 0 -- -- 84
2019-10-25 07:00:00 10 10 Norte 22 Noroeste 0 -- -- 84
2019-10-25 06:00:00 11.2 16 Oeste 26 Oeste 0 -- -- 80
2019-10-25 05:00:00 11.6 15 Noroeste 29 Oeste 0 -- -- 79
2019-10-25 04:00:00 11.8 16 Oeste 27 Noroeste 0 -- -- 77
2019-10-25 03:00:00 12.9 15 Noroeste 39 Noroeste 0 -- -- 71
2019-10-25 02:00:00 13.3 21 Noroeste 38 Noroeste 0 -- -- 71
2019-10-25 01:00:00 13.4 26 Noroeste 39 Noroeste 0 -- -- 71
2019-10-25 00:00:00 12.6 25 Oeste 39 Noroeste 0 -- -- 74
2019-10-24 23:00:00 12.9 27 Noroeste 44 Noroeste 0 -- -- 72
2019-10-24 22:00:00 12.6 30 Noroeste 43 Noroeste 0 -- -- 72
2019-10-24 21:00:00 12.6 19 Noroeste 34 Noroeste 0 -- -- 70
2019-10-24 20:00:00 13.3 22 Noroeste 35 Noroeste 0 -- -- 67
2019-10-24 19:00:00 14.5 23 Noroeste 34 Noroeste 0 -- -- 60
2019-10-24 18:00:00 15.7 21 Noroeste 42 Noroeste 0 -- -- 54
2019-10-24 17:00:00 16.1 30 Noroeste 48 Noroeste 0 -- -- 51
2019-10-24 16:00:00 16.8 22 Noroeste 42 Noroeste 0 -- -- 51
2019-10-24 15:00:00 16.2 28 Noroeste 40 Oeste 0 -- -- 54
2019-10-24 14:00:00 15.4 20 Oeste 41 Noroeste 0 -- -- 56
2019-10-24 13:00:00 14 25 Noroeste 43 Noroeste 0 -- -- 59
2019-10-24 12:00:00 13.2 28 Noroeste 37 Noroeste 0 -- -- 65
2019-10-24 11:00:00 12 25 Noroeste 35 Noroeste 0 -- -- 75
2019-10-24 10:00:00 11 22 Noroeste 32 Noroeste 0 -- -- 82
2019-10-24 09:00:00 9.8 14 Noroeste 21 Oeste 0 -- -- 85
2019-10-24 08:00:00 9.6 9 Noroeste 16 Noroeste 0 -- -- 84
2019-10-24 07:00:00 9.3 11 Noroeste 15 Noroeste 0 -- -- 85
2019-10-24 06:00:00 9.6 12 Noroeste 18 Noroeste 0 -- -- 81
2019-10-24 05:00:00 9.3 10 Oeste 12 Oeste 0 -- -- 77
2019-10-24 04:00:00 8.8 2 Noroeste 13 Noroeste 0 -- -- 79
2019-10-24 03:00:00 10.1 12 Noroeste 14 Noroeste 0 -- -- 74
2019-10-24 02:00:00 9.3 8 Noroeste 14 Noroeste 0 -- -- 83
2019-10-24 01:00:00 9.9 10 Noroeste 14 Noroeste 0 -- -- 84
2019-10-24 00:00:00 11.5 10 Sur 13 Sudeste 0 -- -- 79
2019-10-23 23:00:00 12 7 Sudoeste 21 Noroeste 0 -- -- 73
2019-10-23 22:00:00 12.1 9 Noroeste 14 Oeste 0 -- -- 79
2019-10-23 21:00:00 13.4 12 Oeste 15 Oeste 0 -- -- 70
2019-10-23 20:00:00 13.7 12 Oeste 17 Oeste 0 -- -- 68
2019-10-23 19:00:00 14.8 8 Oeste 12 Oeste 0 -- -- 64
2019-10-23 18:00:00 16 5 Sudoeste 13 Sur 0 -- -- 57
2019-10-23 17:00:00 15.2 10 Sur 21 Sur 0 -- -- 64
2019-10-23 16:00:00 14.9 12 Sur 19 Sudeste 0 -- -- 68
2019-10-23 15:00:00 14.4 7 Sudeste 17 Este 0 -- -- 74
2019-10-23 14:00:00 13.5 9 Este 15 Este 0 -- -- 76
2019-10-23 13:00:00 12.9 10 Sudoeste 18 Sudeste 0 -- -- 84
2019-10-23 12:00:00 11.6 9 Sudeste 18 Sudeste 0 -- -- 90
2019-10-23 11:00:00 11 9 Sudeste 19 Sudeste 0 -- -- 93
2019-10-23 10:00:00 11 8 Sudeste 14 Sudeste 0 -- -- 92
2019-10-23 09:00:00 10.9 3 Este 13 Nordeste 0 -- -- 89
2019-10-23 08:00:00 10.9 7 Norte 15 Norte 0 -- -- 89
2019-10-23 07:00:00 11.2 4 Oeste 13 Sur 0 -- -- 85
2019-10-23 06:00:00 11.9 8 Sudeste 26 Este 0 -- -- 80
2019-10-23 05:00:00 11.9 7 Sur 22 Este 0 -- -- 83
2019-10-23 04:00:00 12.3 8 Este 19 Sudeste 0 -- -- 83
2019-10-23 03:00:00 12.3 9 Sudeste 39 Este 0.6 -- -- 90
2019-10-23 02:00:00 9.6 6 Sur 22 Nordeste 1.8 -- -- 94
2019-10-23 01:00:00 9.5 5 Sudeste 26 Este 2.6 -- -- 94
2019-10-23 00:00:00 9.8 17 Este 33 Noroeste 6.8 -- -- 93
2019-10-22 23:00:00 -- -- -- -- -- -- -- -- --
2019-10-22 22:00:00 -- -- -- -- -- -- -- -- --
2019-10-22 21:00:00 -- -- -- -- -- -- -- -- --
2019-10-22 20:00:00 -- -- -- -- -- -- -- -- --
2019-10-22 19:00:00 -- -- -- -- -- -- -- -- --
2019-10-22 18:00:00 -- -- -- -- -- -- -- -- --
2019-10-22 17:00:00 -- -- -- -- -- -- -- -- --
2019-10-22 16:00:00 9.1 21 Noroeste 40 Norte 1.6 -- -- 91
2019-10-22 15:00:00 8.8 19 Noroeste 33 Noroeste 6.6 -- -- 91
2019-10-22 14:00:00 9.3 22 Noroeste 32 Noroeste 3 -- -- 89
2019-10-22 13:00:00 9.8 21 Noroeste 28 Noroeste 2.8 -- -- 88
2019-10-22 12:00:00 10.6 18 Oeste 26 Oeste 0.6 -- -- 86
2019-10-22 11:00:00 11 13 Oeste 20 Noroeste 0.4 -- -- 85
2019-10-22 10:00:00 10.1 8 Noroeste 12 Noroeste 0 -- -- 82
2019-10-22 09:00:00 10.4 8 Noroeste 13 Noroeste 0 -- -- 79
2019-10-22 08:00:00 10.1 10 Noroeste 17 Oeste 0 -- -- 81
2019-10-22 07:00:00 9.5 14 Oeste 17 Noroeste 0 -- -- 84
2019-10-22 06:00:00 9.8 4 Noroeste 9 Noroeste 0 -- -- 82
2019-10-22 05:00:00 9.8 9 Noroeste 11 Noroeste 0 -- -- 82
2019-10-22 04:00:00 9.7 10 Noroeste 11 Noroeste 0 -- -- 82
2019-10-22 03:00:00 9.8 3 Oeste 10 Oeste 0 -- -- 80
2019-10-22 02:00:00 9.6 6 Noroeste 10 Noroeste 0 -- -- 81
2019-10-22 01:00:00 8.5 4 Noroeste 11 Noroeste 0 -- -- 84
2019-10-22 00:00:00 10.5 11 Noroeste 13 Noroeste 0 -- -- 77
2019-10-21 23:00:00 11.2 2 Noroeste 4 Noroeste 0 -- -- 75
2019-10-21 22:00:00 10.3 4 Noroeste 6 Noroeste 0 -- -- 77
2019-10-21 21:00:00 11.4 4 Sudoeste 9 Sudoeste 0 -- -- 71
2019-10-21 20:00:00 13.2 4 Nordeste 6 Norte 0 -- -- 66
2019-10-21 19:00:00 13.9 6 Nordeste 10 Nordeste 0 -- -- 65
2019-10-21 18:00:00 15 6 Nordeste 11 Este 0 -- -- 60
2019-10-21 17:00:00 14.7 7 Este 13 Sudeste 0 -- -- 62
2019-10-21 16:00:00 14.9 7 Sudeste 13 Este 0 -- -- 59
2019-10-21 15:00:00 15 6 Este 16 Sudeste 0 -- -- 57
2019-10-21 14:00:00 14.6 6 Este 11 Norte 0 -- -- 59
2019-10-21 13:00:00 13.5 2 Noroeste 8 Sudoeste 0 -- -- 65
2019-10-21 12:00:00 11.2 3 Sudeste 9 Sur 0 -- -- 77
2019-10-21 11:00:00 9.7 0 Calma 8 Norte 0 -- -- 85
2019-10-21 10:00:00 8.2 7 Norte 10 Nordeste 0 -- -- 89
2019-10-21 09:00:00 7.2 8 Norte 11 Noroeste 0 -- -- 87
2019-10-21 08:00:00 8.6 9 Oeste 18 Noroeste 0 -- -- 81
2019-10-21 07:00:00 8.1 15 Noroeste 18 Noroeste 0 -- -- 82
2019-10-21 06:00:00 8 3 Oeste 17 Oeste 0 -- -- 85
2019-10-21 05:00:00 7.6 11 Noroeste 13 Noroeste 0 -- -- 88
2019-10-21 04:00:00 8.2 9 Nordeste 20 Oeste 0 -- -- 89
2019-10-21 03:00:00 9 14 Noroeste 29 Oeste 0 -- -- 85
2019-10-21 02:00:00 9.8 21 Oeste 30 Oeste 0 -- -- 83
2019-10-21 01:00:00 10.2 14 Oeste 26 Oeste 0 -- -- 81
2019-10-21 00:00:00 9.9 14 Oeste 22 Oeste 0 -- -- 80
2019-10-20 23:00:00 10.4 14 Oeste 20 Oeste 0 -- -- 78
2019-10-20 22:00:00 10.9 10 Oeste 15 Noroeste 0 -- -- 77
2019-10-20 21:00:00 12.2 11 Oeste 25 Noroeste 0 -- -- 72
2019-10-20 20:00:00 13.8 14 Oeste 26 Oeste 0 -- -- 60
2019-10-20 19:00:00 16.3 14 Oeste 23 Oeste 0 -- -- 48
2019-10-20 18:00:00 17.6 8 Oeste 22 Noroeste 0 -- -- 45
2019-10-20 17:00:00 17.5 13 Oeste 23 Noroeste 0 -- -- 46
2019-10-20 16:00:00 16.8 17 Oeste 30 Noroeste 0 -- -- 48
2019-10-20 15:00:00 16.7 18 Noroeste 38 Oeste 0 -- -- 48
2019-10-20 14:00:00 17 21 Noroeste 36 Noroeste 0 -- -- 51
2019-10-20 13:00:00 16 20 Noroeste 33 Noroeste 0 -- -- 55
2019-10-20 12:00:00 16 20 Oeste 37 Noroeste 0 -- -- 54
2019-10-20 11:00:00 15.8 24 Noroeste 38 Oeste 0 -- -- 63
2019-10-20 10:00:00 14.9 9 Norte 17 Oeste 0 -- -- 77
2019-10-20 09:00:00 15 9 Oeste 18 Sudoeste 0 -- -- 81
2019-10-20 08:00:00 14.5 10 Oeste 15 Oeste 0 -- -- 86
2019-10-20 07:00:00 14.4 0 Calma 8 Sudoeste 0 -- -- 85
2019-10-20 06:00:00 14.6 3 Noroeste 11 Sudeste 0 -- -- 85
2019-10-20 05:00:00 14.9 6 Sur 16 Sudoeste 1 -- -- 82
2019-10-20 04:00:00 15.1 10 Noroeste 17 Sudeste 0.2 -- -- 83
2019-10-20 03:00:00 16.4 12 Sudeste 16 Sudeste 0 -- -- 71
2019-10-20 02:00:00 17.3 9 Sudeste 22 Sudeste 0 -- -- 63
2019-10-20 01:00:00 17.6 13 Sudeste 23 Sur 0 -- -- 59
2019-10-20 00:00:00 17.9 10 Sudeste 14 Sudeste 0 -- -- 58
2019-10-19 23:00:00 17.5 5 Sur 9 Sudeste 0 -- -- 62
2019-10-19 22:00:00 18.2 5 Sur 13 Sudeste 0 -- -- 60
2019-10-19 21:00:00 18.9 6 Sudeste 16 Este 0 -- -- 57
2019-10-19 20:00:00 18.9 6 Sudeste 12 Sudeste 0 -- -- 57
2019-10-19 19:00:00 20.1 7 Este 23 Este 0 -- -- 54
2019-10-19 18:00:00 21.6 12 Este 24 Este 0 -- -- 51
2019-10-19 17:00:00 21.5 17 Este 26 Este 0 -- -- 49
2019-10-19 16:00:00 22.2 14 Este 23 Este 0 -- -- 46
2019-10-19 15:00:00 21.8 7 Este 19 Este 0 -- -- 44
2019-10-19 14:00:00 21.1 10 Sudeste 19 Sur 0 -- -- 50
2019-10-19 13:00:00 20.7 4 Sudeste 17 Sudeste 0 -- -- 53
2019-10-19 12:00:00 18.9 9 Sudeste 18 Sudeste 0 -- -- 64
2019-10-19 11:00:00 15.9 7 Este 11 Sur 0 -- -- 79
2019-10-19 10:00:00 15.3 7 Nordeste 13 Nordeste 0 -- -- 82
2019-10-19 09:00:00 14 5 Noroeste 12 Norte 0 -- -- 85
2019-10-19 08:00:00 13.9 4 Sur 10 Noroeste 0 -- -- 85
2019-10-19 07:00:00 14.1 2 Norte 10 Sur 0 -- -- 84
2019-10-19 06:00:00 13.9 4 Sudoeste 11 Sudoeste 0 -- -- 85
2019-10-19 05:00:00 13 6 Noroeste 13 Noroeste 0 -- -- 87
2019-10-19 04:00:00 14.1 2 Sudeste 8 Sudeste 0 -- -- 82
2019-10-19 03:00:00 13.5 7 Sur 10 Sur 0 -- -- 82
2019-10-19 02:00:00 14.6 4 Sur 5 Sudoeste 0 -- -- 79
2019-10-19 01:00:00 15.3 0 Calma 11 Nordeste 0 -- -- 79
2019-10-19 00:00:00 16.3 3 Sur 10 Nordeste 0.2 -- -- 73
2019-10-18 23:00:00 16.3 4 Sudoeste 8 Sudoeste 0 -- -- 74
2019-10-18 22:00:00 16.4 3 Sur 9 Sur 0 -- -- 74
2019-10-18 21:00:00 16.8 6 Sudoeste 9 Sudoeste 0 -- -- 73
2019-10-18 20:00:00 17.7 0 Calma 4 Sur 0 -- -- 72
2019-10-18 19:00:00 18.4 0 Calma 10 Nordeste 0 -- -- 71
2019-10-18 18:00:00 19.4 3 Sudeste 8 Nordeste 0 -- -- 62
2019-10-18 17:00:00 19.3 3 Nordeste 9 Norte 0 -- -- 63
2019-10-18 16:00:00 18.7 6 Nordeste 15 Sudeste 0.4 -- -- 67
2019-10-18 15:00:00 19.3 9 Sudeste 15 Sudeste 0 -- -- 59
2019-10-18 14:00:00 18.3 8 Sudeste 15 Este 0 -- -- 62
2019-10-18 13:00:00 17.6 5 Sudeste 12 Sur 0 -- -- 63
2019-10-18 12:00:00 16 5 Sur 10 Sur 0 -- -- 68
2019-10-18 11:00:00 15.6 3 Sudeste 8 Sur 0 -- -- 70
2019-10-18 10:00:00 14.2 0 Calma 7 Sudoeste 0 -- -- 79
2019-10-18 09:00:00 12.8 3 Sur 11 Norte 0 -- -- 79
2019-10-18 08:00:00 13.1 3 Sudoeste 6 Oeste 0 -- -- 77
2019-10-18 07:00:00 12.8 3 Este 8 Norte 0 -- -- 76
2019-10-18 06:00:00 13.1 3 Sudeste 9 Sudoeste 0 -- -- 77
2019-10-18 05:00:00 12.9 7 Sudoeste 10 Sudoeste 0 -- -- 78
2019-10-18 04:00:00 13.1 5 Sudeste 6 Sudeste 0 -- -- 74
2019-10-18 03:00:00 12.4 0 Calma 6 Nordeste 0 -- -- 75
2019-10-18 02:00:00 13.5 3 Sudeste 5 Sudeste 0 -- -- 71
2019-10-18 01:00:00 13.6 2 Este 9 Sudeste 0 -- -- 70
2019-10-18 00:00:00 15.2 5 Sudoeste 8 Sur 0 -- -- 64